메인 페이지
METAR-TAF:

METAR-TAF

공항 :

더블린 공항

더블린, 아일랜드

위도: 53-26N, 경도: 006-15W, 고도: 68m

현재 날씨관측

예보는 39분 전, 00:30시(UTC)에 발표되었습니다.
남서9kt풍과 풍을 오가는
온도 17°C
습도 82%
기압 1013 hPa
시정 10km 이상
고도 2200ft 상공 구름 조금
고도 3000ft 상공 구름 많음
고도 8000ft 상공 구름 많음

METAR: EIDW 150030Z 23009KT 180V280 9999 FEW022 BKN030 BKN080 17/14 Q1013 NOSIG

시각: 02:09 (01:09 UTC)

예보

예보는 2 시간 9분 전, 23:00시(UTC)에 발표되었습니다.
예보 대상 시간: 15일 00시부터 15일 24시까지 (UTC)
남서12kt
시정 10km 이상
고도 1500ft 상공 구름 보통
고도 2500ft 상공 구름 많음
확률 40% :
일시적
15일 03시부터 15일 09시까지 (UTC)
고도 1000ft 상공 구름 많음
약한이슬비
일시적
15일 09시부터 15일 20시까지 (UTC)
남서16kt, 순간 최대 풍속 28kt
확률 40% :
일시적
15일 12시부터 15일 21시까지 (UTC)
고도 1400ft 상공 구름 많음
약한소나기

TAF: EIDW 142300Z 1500/1524 23012KT 9999 SCT015 BKN025 PROB40 TEMPO 1503/1509 -DZ BKN010 TEMPO 1509/1520 23016G28KT PROB40 TEMPO 1512/1521 -SHRA BKN014

4,000개 이상의 공항 관측 자료 및 예보 (METAR 및 TAF 보고).

지도상에서 검색 가능한 기상관측소가 노란 점과 빨간 점으로 표시되어 있습니다.

기상관측소 명을 보려면 표시 위로 마우스를 이동하세요.

날씨 관측과 예보를 보려면 클릭하세요.

지도 변경 : 확대하려면 엑스 표시가 있는 녹색 버튼, 축소하려면 빼기 표시가 있는 녹색 버튼, 다음 페이지의 지도를 보려면 녹색 화살표를 클릭하세요.


METAR-TAF: